createdAt,value
2022-10-02T00:00:09.329Z,6.93
2022-10-02T00:03:21.579Z,8.77
2022-10-02T00:06:28.734Z,10.45
2022-10-02T00:09:42.863Z,14.88
2022-10-02T00:12:50.150Z,15.20
2022-10-02T00:15:54.407Z,17.08
2022-10-02T00:18:57.780Z,12.77
2022-10-02T00:22:50.902Z,14.80
2022-10-02T00:26:19.877Z,8.68
2022-10-02T00:29:24.459Z,8.63
2022-10-02T00:32:45.336Z,9.45
2022-10-02T00:36:01.716Z,9.20
2022-10-02T00:39:07.390Z,11.65
2022-10-02T00:42:37.977Z,8.45
2022-10-02T00:46:13.060Z,9.40
2022-10-02T00:49:18.995Z,12.40
2022-10-02T00:52:38.814Z,8.90
2022-10-02T00:56:01.120Z,10.02
2022-10-02T00:59:03.809Z,10.60
2022-10-02T01:02:44.661Z,9.85
2022-10-02T01:05:47.591Z,7.30
2022-10-02T01:08:52.238Z,7.23
2022-10-02T01:11:55.755Z,12.88
2022-10-02T01:14:58.413Z,8.90
2022-10-02T01:18:02.679Z,8.77
2022-10-02T01:21:14.555Z,7.90
2022-10-02T01:24:37.117Z,8.60
2022-10-02T01:27:40.362Z,8.07
2022-10-02T01:30:46.449Z,8.52
2022-10-02T01:33:49.946Z,8.10
2022-10-02T01:36:52.901Z,7.75
2022-10-02T01:40:02.115Z,8.00
2022-10-02T01:43:07.806Z,8.20
2022-10-02T01:46:13.455Z,10.00
2022-10-02T01:49:49.704Z,6.63
2022-10-02T01:53:02.880Z,9.48
2022-10-02T01:56:29.912Z,8.33
2022-10-02T01:59:54.449Z,7.20
2022-10-02T02:03:13.636Z,11.10
2022-10-02T02:07:02.918Z,9.68
2022-10-02T02:10:41.447Z,9.57
2022-10-02T02:14:03.032Z,9.27
2022-10-02T02:17:34.375Z,9.10
2022-10-02T02:20:44.834Z,7.80
2022-10-02T02:23:47.695Z,9.57
2022-10-02T02:26:53.498Z,11.48
2022-10-02T02:30:02.776Z,10.40
2022-10-02T02:33:10.799Z,12.75
2022-10-02T02:36:19.038Z,13.40
2022-10-02T02:39:47.722Z,17.65
2022-10-02T02:43:16.737Z,24.48
2022-10-02T02:46:25.519Z,19.80
2022-10-02T02:49:33.069Z,19.63
2022-10-02T02:53:11.241Z,20.02
2022-10-02T02:56:18.400Z,21.42
2022-10-02T02:59:27.083Z,17.50
2022-10-02T03:02:29.899Z,15.50
2022-10-02T03:05:35.066Z,15.40
2022-10-02T03:08:38.208Z,15.07
2022-10-02T03:11:53.223Z,15.75
2022-10-02T03:15:22.634Z,18.33
2022-10-02T03:18:32.199Z,14.60
2022-10-02T03:22:03.403Z,13.98
2022-10-02T03:25:09.131Z,14.20
2022-10-02T03:28:37.292Z,16.00
2022-10-02T03:31:44.482Z,15.27
2022-10-02T03:34:49.202Z,13.43
2022-10-02T03:37:57.282Z,13.63
2022-10-02T03:41:00.097Z,17.58
2022-10-02T03:44:02.749Z,21.42
2022-10-02T03:47:05.830Z,22.13
2022-10-02T03:50:09.381Z,16.03
2022-10-02T03:53:19.298Z,18.98
2022-10-02T03:56:41.051Z,24.90
2022-10-02T04:00:05.881Z,24.38
2022-10-02T04:03:21.708Z,35.80
2022-10-02T04:06:36.254Z,44.50
2022-10-02T04:09:56.309Z,34.40
2022-10-02T04:13:24.174Z,32.33
2022-10-02T04:16:35.835Z,32.03
2022-10-02T04:19:48.076Z,28.55
2022-10-02T04:22:57.031Z,23.43
2022-10-02T04:26:15.422Z,25.40
2022-10-02T04:29:28.652Z,21.80
2022-10-02T04:32:34.200Z,22.40
2022-10-02T04:35:48.998Z,19.38
2022-10-02T04:39:06.853Z,21.67
2022-10-02T04:42:38.792Z,22.90
2022-10-02T04:46:12.187Z,22.40
2022-10-02T04:49:45.795Z,23.92
2022-10-02T04:53:12.154Z,20.98
2022-10-02T04:56:55.843Z,21.10
2022-10-02T05:00:18.714Z,20.85
2022-10-02T05:03:43.893Z,20.52
2022-10-02T05:07:01.047Z,18.73
2022-10-02T05:10:40.515Z,19.02
2022-10-02T05:14:07.347Z,20.80
2022-10-02T05:17:42.320Z,17.58
2022-10-02T05:21:19.027Z,19.23
2022-10-02T05:24:40.438Z,21.15
2022-10-02T05:27:58.316Z,19.90
2022-10-02T05:31:35.993Z,16.77
2022-10-02T05:34:41.681Z,15.48
2022-10-02T05:37:53.606Z,17.05
2022-10-02T05:41:15.060Z,18.60
2022-10-02T05:44:26.961Z,22.05
2022-10-02T05:47:33.807Z,16.20
2022-10-02T05:50:38.201Z,14.27
2022-10-02T05:53:47.314Z,14.05
2022-10-02T05:57:03.306Z,12.32
2022-10-02T06:00:32.754Z,15.55
2022-10-02T06:03:49.242Z,13.00
2022-10-02T06:06:56.393Z,10.93
2022-10-02T06:10:16.331Z,17.20
2022-10-02T06:13:36.001Z,12.07
2022-10-02T06:16:57.943Z,13.50
2022-10-02T06:20:12.823Z,8.93
2022-10-02T06:23:22.565Z,9.63
2022-10-02T06:26:42.194Z,10.15
2022-10-02T06:29:57.932Z,8.60
2022-10-02T06:33:11.714Z,7.82
2022-10-02T06:36:21.488Z,9.40
2022-10-02T06:39:33.080Z,8.27
2022-10-02T06:42:49.589Z,7.28
2022-10-02T06:46:18.454Z,4.25
2022-10-02T06:49:37.550Z,3.67
2022-10-02T06:52:47.201Z,3.60
2022-10-02T06:56:02.130Z,5.47
2022-10-02T06:59:22.376Z,5.28
2022-10-02T07:02:25.167Z,3.60
2022-10-02T07:05:39.954Z,4.28
2022-10-02T07:09:19.353Z,3.33
2022-10-02T07:12:44.043Z,5.40
2022-10-02T07:16:11.024Z,3.28
2022-10-02T07:19:39.064Z,2.90
2022-10-02T07:22:55.302Z,8.27
2022-10-02T07:26:19.532Z,3.93
2022-10-02T07:29:41.175Z,6.90
2022-10-02T07:32:59.356Z,3.80
2022-10-02T07:36:23.656Z,3.20
2022-10-02T07:40:10.331Z,3.50
2022-10-02T07:43:27.959Z,2.90
2022-10-02T07:46:45.085Z,2.03
2022-10-02T07:49:56.319Z,3.83
2022-10-02T07:53:26.810Z,1.48
2022-10-02T07:56:30.723Z,2.08
2022-10-02T07:59:34.308Z,1.73
2022-10-02T08:02:43.228Z,4.38
2022-10-02T08:05:55.158Z,3.50
2022-10-02T08:09:07.229Z,3.72
2022-10-02T08:12:09.951Z,2.55
2022-10-02T08:15:17.849Z,3.03
2022-10-02T08:18:43.369Z,1.33
2022-10-02T08:21:50.219Z,1.92
2022-10-02T08:24:57.810Z,2.50
2022-10-02T08:28:04.041Z,2.45
2022-10-02T08:31:12.061Z,1.17
2022-10-02T08:34:21.183Z,1.52
2022-10-02T08:37:39.302Z,1.20
2022-10-02T08:40:57.129Z,1.40
2022-10-02T08:44:22.819Z,2.20
2022-10-02T08:47:54.637Z,2.13
2022-10-02T08:51:08.574Z,2.10
2022-10-02T08:54:33.005Z,1.67
2022-10-02T08:58:11.060Z,2.33
2022-10-02T09:01:46.739Z,1.67
2022-10-02T09:05:26.723Z,3.77
2022-10-02T09:09:07.657Z,2.75
2022-10-02T09:12:25.863Z,3.53
2022-10-02T09:15:42.938Z,1.85
2022-10-02T09:18:55.394Z,1.33
2022-10-02T09:22:23.105Z,3.40
2022-10-02T09:25:47.135Z,2.53
2022-10-02T09:29:24.037Z,2.10
2022-10-02T09:32:58.909Z,2.30
2022-10-02T09:36:32.541Z,4.05
2022-10-02T09:40:01.889Z,2.73
2022-10-02T09:43:14.476Z,5.72
2022-10-02T09:46:43.278Z,3.33
2022-10-02T09:50:30.350Z,3.65
2022-10-02T09:54:09.934Z,2.15
2022-10-02T09:57:31.910Z,3.93
2022-10-02T10:00:55.243Z,3.97
2022-10-02T10:05:01.287Z,2.33
2022-10-02T10:08:23.575Z,3.47
2022-10-02T10:12:03.227Z,3.30
2022-10-02T10:15:46.560Z,1.60
2022-10-02T10:19:25.750Z,1.45
2022-10-02T10:22:34.209Z,1.63
2022-10-02T10:25:50.417Z,2.35
2022-10-02T10:29:27.222Z,2.15
2022-10-02T10:32:48.287Z,5.13
2022-10-02T10:36:00.037Z,2.67
2022-10-02T10:39:40.297Z,1.88
2022-10-02T10:43:21.434Z,2.97
2022-10-02T10:46:37.312Z,2.47
2022-10-02T10:50:07.663Z,6.13
2022-10-02T10:53:40.612Z,3.63
2022-10-02T10:56:56.884Z,3.38
2022-10-02T11:00:20.400Z,3.60
2022-10-02T11:04:13.668Z,2.80
2022-10-02T11:07:26.638Z,5.57
2022-10-02T11:10:35.203Z,3.47
2022-10-02T11:13:48.986Z,3.55
2022-10-02T11:17:09.587Z,2.35
2022-10-02T11:20:35.067Z,3.47
2022-10-02T11:23:46.760Z,2.27
2022-10-02T11:27:19.050Z,2.33
2022-10-02T11:30:25.471Z,4.47
2022-10-02T11:34:02.070Z,2.58
2022-10-02T11:37:14.343Z,4.50
2022-10-02T11:40:32.371Z,2.30
2022-10-02T11:43:52.901Z,1.58
2022-10-02T11:47:14.495Z,3.38
2022-10-02T11:50:52.375Z,1.98
2022-10-02T11:54:27.440Z,2.85
2022-10-02T11:58:03.204Z,2.40
2022-10-02T12:01:05.986Z,2.67
2022-10-02T12:04:40.922Z,1.65
2022-10-02T12:08:11.475Z,2.42
2022-10-02T12:11:26.958Z,4.45
2022-10-02T12:14:55.688Z,8.10
2022-10-02T12:18:25.938Z,2.28
2022-10-02T12:21:46.813Z,2.53
2022-10-02T12:25:45.861Z,3.25
2022-10-02T12:29:02.858Z,2.38
2022-10-02T12:32:39.268Z,2.07
2022-10-02T12:35:57.197Z,1.15
2022-10-02T12:39:24.711Z,1.42
2022-10-02T12:42:49.349Z,3.35
2022-10-02T12:46:01.316Z,1.58
2022-10-02T12:49:22.060Z,1.73
2022-10-02T12:52:34.595Z,3.55
2022-10-02T12:56:01.538Z,5.38
2022-10-02T12:59:22.750Z,4.75
2022-10-02T13:03:06.842Z,3.65
2022-10-02T13:06:29.793Z,2.83
2022-10-02T13:09:39.068Z,2.35
2022-10-02T13:13:09.850Z,2.08
2022-10-02T13:16:34.366Z,1.60
2022-10-02T13:20:01.145Z,2.60
2022-10-02T13:23:16.383Z,3.00
2022-10-02T13:26:52.047Z,3.53
2022-10-02T13:29:58.618Z,2.65
2022-10-02T13:33:25.260Z,1.98
2022-10-02T13:36:35.270Z,1.90
2022-10-02T13:39:46.966Z,3.57
2022-10-02T13:42:49.591Z,4.30
2022-10-02T13:45:57.383Z,3.45
2022-10-02T13:49:28.996Z,2.83
2022-10-02T13:52:46.714Z,1.77
2022-10-02T13:56:02.839Z,7.90
2022-10-02T13:59:25.956Z,2.17
2022-10-02T14:02:39.728Z,2.13
2022-10-02T14:05:52.441Z,2.60
2022-10-02T14:09:10.693Z,5.43
2022-10-02T14:12:26.093Z,4.13
2022-10-02T14:15:55.654Z,2.33
2022-10-02T14:19:08.090Z,1.92
2022-10-02T14:22:55.449Z,1.83
2022-10-02T14:26:08.634Z,4.85
2022-10-02T14:29:35.143Z,2.23
2022-10-02T14:32:40.753Z,3.08
2022-10-02T14:36:15.771Z,4.22
2022-10-02T14:39:39.648Z,3.03
2022-10-02T14:43:02.289Z,3.67
2022-10-02T14:46:59.559Z,3.40
2022-10-02T14:50:23.450Z,3.90
2022-10-02T14:53:50.571Z,4.32
2022-10-02T14:57:08.197Z,2.63
2022-10-02T15:00:24.901Z,5.30
2022-10-02T15:03:43.695Z,3.07
2022-10-02T15:06:59.018Z,6.32
2022-10-02T15:10:07.917Z,5.75
2022-10-02T15:13:24.686Z,3.55
2022-10-02T15:16:59.480Z,5.85
2022-10-02T15:20:26.319Z,3.87
2022-10-02T15:23:45.669Z,5.00
2022-10-02T15:27:01.583Z,7.85
2022-10-02T15:30:17.918Z,4.82
2022-10-02T15:33:32.009Z,4.88
2022-10-02T15:36:34.668Z,3.77
2022-10-02T15:39:51.310Z,4.88
2022-10-02T15:42:59.277Z,5.50
2022-10-02T15:46:14.500Z,3.25
2022-10-02T15:49:34.049Z,4.57
2022-10-02T15:53:05.963Z,4.80
2022-10-02T15:56:17.636Z,5.18
2022-10-02T15:59:23.474Z,6.47
2022-10-02T16:02:51.416Z,4.22
2022-10-02T16:06:13.598Z,4.93
2022-10-02T16:09:43.587Z,18.13
2022-10-02T16:13:14.122Z,23.00
2022-10-02T16:16:48.592Z,16.38
2022-10-02T16:20:02.662Z,18.48
2022-10-02T16:23:30.343Z,12.75
2022-10-02T16:27:00.779Z,14.40
2022-10-02T16:30:17.746Z,33.47
2022-10-02T16:33:26.603Z,35.78
2022-10-02T16:36:38.270Z,31.08
2022-10-02T16:40:19.977Z,30.20
2022-10-02T16:43:41.471Z,33.40
2022-10-02T16:46:54.222Z,18.38
2022-10-02T16:50:13.080Z,6.40
2022-10-02T16:53:26.380Z,5.90
2022-10-02T16:56:40.705Z,8.52
2022-10-02T16:59:51.811Z,3.60
2022-10-02T17:03:28.981Z,2.70
2022-10-02T17:06:40.063Z,4.88
2022-10-02T17:09:47.882Z,5.88
2022-10-02T17:13:01.289Z,3.70
2022-10-02T17:16:21.099Z,5.73
2022-10-02T17:19:27.856Z,5.57
2022-10-02T17:22:42.868Z,6.85
2022-10-02T17:26:06.010Z,6.35
2022-10-02T17:29:25.555Z,5.78
2022-10-02T17:32:46.577Z,3.17
2022-10-02T17:35:54.914Z,4.88
2022-10-02T17:39:21.541Z,10.20
2022-10-02T17:42:47.302Z,14.05
2022-10-02T17:46:24.308Z,21.35
2022-10-02T17:49:33.091Z,17.07
2022-10-02T17:53:05.159Z,18.58
2022-10-02T17:56:29.567Z,36.47
2022-10-02T17:59:48.465Z,33.45
2022-10-02T18:02:51.160Z,30.25
2022-10-02T18:06:05.318Z,31.47
2022-10-02T18:09:17.211Z,31.70
2022-10-02T18:12:57.929Z,33.60
2022-10-02T18:16:09.519Z,20.92
2022-10-02T18:19:36.703Z,10.73
2022-10-02T18:22:52.340Z,13.20
2022-10-02T18:26:33.415Z,19.05
2022-10-02T18:29:55.485Z,24.58
2022-10-02T18:33:10.440Z,27.23
2022-10-02T18:36:29.124Z,27.02
2022-10-02T18:40:07.371Z,23.40
2022-10-02T18:43:28.901Z,19.73
2022-10-02T18:47:08.074Z,18.77
2022-10-02T18:50:39.713Z,16.58
2022-10-02T18:53:56.961Z,12.02
2022-10-02T18:57:25.202Z,16.13
2022-10-02T19:00:59.647Z,11.35
2022-10-02T19:04:45.631Z,15.50
2022-10-02T19:08:10.604Z,7.72
2022-10-02T19:11:18.605Z,8.60
2022-10-02T19:14:34.405Z,9.90
2022-10-02T19:17:37.206Z,9.27
2022-10-02T19:20:40.343Z,12.40
2022-10-02T19:24:02.672Z,13.00
2022-10-02T19:27:13.695Z,11.70
2022-10-02T19:30:26.326Z,12.70
2022-10-02T19:33:49.897Z,12.15
2022-10-02T19:36:57.233Z,8.82
2022-10-02T19:40:03.984Z,8.70
2022-10-02T19:43:08.665Z,7.63
2022-10-02T19:46:12.662Z,6.00
2022-10-02T19:49:22.770Z,6.38
2022-10-02T19:52:35.936Z,6.65
2022-10-02T19:55:42.573Z,7.43
2022-10-02T19:58:58.702Z,6.25
2022-10-02T20:02:13.201Z,5.50
2022-10-02T20:05:22.044Z,4.75
2022-10-02T20:08:36.893Z,4.57
2022-10-02T20:11:46.586Z,5.38
2022-10-02T20:15:14.725Z,6.53
2022-10-02T20:18:17.713Z,7.37
2022-10-02T20:21:48.746Z,4.53
2022-10-02T20:25:14.833Z,7.28
2022-10-02T20:28:29.705Z,9.15
2022-10-02T20:31:56.757Z,8.13
2022-10-02T20:35:08.874Z,6.03
2022-10-02T20:38:21.311Z,6.35
2022-10-02T20:41:29.798Z,6.55
2022-10-02T20:44:36.660Z,5.97
2022-10-02T20:47:57.580Z,8.07
2022-10-02T20:51:09.214Z,7.90
2022-10-02T20:54:36.024Z,5.82
2022-10-02T20:58:29.622Z,4.85
2022-10-02T21:02:04.669Z,7.55
2022-10-02T21:05:35.472Z,8.60
2022-10-02T21:09:03.190Z,8.93
2022-10-02T21:12:27.630Z,8.27
2022-10-02T21:15:55.414Z,5.60
2022-10-02T21:19:22.343Z,6.88
2022-10-02T21:22:43.380Z,7.03
2022-10-02T21:26:09.798Z,5.97
2022-10-02T21:29:32.199Z,6.88
2022-10-02T21:32:34.848Z,5.50
2022-10-02T21:35:51.766Z,5.45
2022-10-02T21:39:36.496Z,11.10
2022-10-02T21:43:17.799Z,6.83
2022-10-02T21:46:54.825Z,6.18
2022-10-02T21:50:40.741Z,6.80
2022-10-02T21:54:27.745Z,9.25
2022-10-02T21:58:08.752Z,6.82
2022-10-02T22:02:07.323Z,9.03
2022-10-02T22:05:31.741Z,9.98
2022-10-02T22:08:40.519Z,5.95
2022-10-02T22:12:07.583Z,8.55
2022-10-02T22:15:16.272Z,8.95
2022-10-02T22:18:45.361Z,6.20
2022-10-02T22:22:03.503Z,6.25
2022-10-02T22:25:09.240Z,8.02
2022-10-02T22:28:35.369Z,7.95
2022-10-02T22:32:19.247Z,9.00
2022-10-02T22:35:49.661Z,6.13
2022-10-02T22:39:20.605Z,5.18
2022-10-02T22:42:37.753Z,8.82
2022-10-02T22:45:50.720Z,6.57
2022-10-02T22:49:10.552Z,6.88
2022-10-02T22:52:24.345Z,9.80
2022-10-02T22:55:32.203Z,7.88
2022-10-02T22:58:42.083Z,6.63
2022-10-02T23:01:57.089Z,3.92
2022-10-02T23:05:24.561Z,4.07
2022-10-02T23:08:30.368Z,4.27
2022-10-02T23:11:42.986Z,5.88
2022-10-02T23:15:05.644Z,5.88
2022-10-02T23:18:32.057Z,5.93
2022-10-02T23:22:01.183Z,7.10
2022-10-02T23:25:29.819Z,5.17
2022-10-02T23:28:35.684Z,4.50
2022-10-02T23:32:04.901Z,5.15
2022-10-02T23:35:30.368Z,4.72
2022-10-02T23:39:00.881Z,3.97
2022-10-02T23:42:09.574Z,3.17
2022-10-02T23:45:26.205Z,4.60
2022-10-02T23:48:30.308Z,4.05
2022-10-02T23:52:06.505Z,3.05
2022-10-02T23:55:30.901Z,5.45
2022-10-02T23:58:56.908Z,4.43
